sensor_id;sensor_type;location;lat;lon;timestamp;temperature;humidity
21502;DHT22;27639;48.674;9.242;2022-12-16T00:01:21;2.80;60.90
21502;DHT22;27639;48.674;9.242;2022-12-16T00:03:51;2.80;60.90
21502;DHT22;27639;48.674;9.242;2022-12-16T00:06:19;2.80;60.90
21502;DHT22;27639;48.674;9.242;2022-12-16T00:08:45;2.80;61.20
21502;DHT22;27639;48.674;9.242;2022-12-16T00:11:11;2.80;61.10
21502;DHT22;27639;48.674;9.242;2022-12-16T00:13:38;2.80;61.10
21502;DHT22;27639;48.674;9.242;2022-12-16T00:16:09;2.90;61.00
21502;DHT22;27639;48.674;9.242;2022-12-16T00:18:35;2.80;60.70
21502;DHT22;27639;48.674;9.242;2022-12-16T00:21:01;2.80;60.90
21502;DHT22;27639;48.674;9.242;2022-12-16T00:23:28;2.80;60.90
21502;DHT22;27639;48.674;9.242;2022-12-16T00:25:53;2.80;60.90
21502;DHT22;27639;48.674;9.242;2022-12-16T00:28:19;2.80;61.00
21502;DHT22;27639;48.674;9.242;2022-12-16T00:30:52;2.80;61.20
21502;DHT22;27639;48.674;9.242;2022-12-16T00:33:19;2.90;61.00
21502;DHT22;27639;48.674;9.242;2022-12-16T00:35:45;2.80;60.70
21502;DHT22;27639;48.674;9.242;2022-12-16T00:38:11;2.80;60.90
21502;DHT22;27639;48.674;9.242;2022-12-16T00:40:37;2.90;61.00
21502;DHT22;27639;48.674;9.242;2022-12-16T00:43:03;2.80;61.10
21502;DHT22;27639;48.674;9.242;2022-12-16T00:45:28;2.80;61.20
21502;DHT22;27639;48.674;9.242;2022-12-16T00:47:54;2.80;60.90
21502;DHT22;27639;48.674;9.242;2022-12-16T00:50:20;2.80;61.00
21502;DHT22;27639;48.674;9.242;2022-12-16T00:52:46;2.80;61.10
21502;DHT22;27639;48.674;9.242;2022-12-16T00:55:13;2.90;61.50
21502;DHT22;27639;48.674;9.242;2022-12-16T00:57:39;2.90;61.60
21502;DHT22;27639;48.674;9.242;2022-12-16T01:00:06;2.90;61.40
21502;DHT22;27639;48.674;9.242;2022-12-16T01:02:32;2.90;61.30
21502;DHT22;27639;48.674;9.242;2022-12-16T01:04:57;2.90;61.30
21502;DHT22;27639;48.674;9.242;2022-12-16T01:07:23;2.80;61.40
21502;DHT22;27639;48.674;9.242;2022-12-16T01:09:49;2.80;61.60
21502;DHT22;27639;48.674;9.242;2022-12-16T01:12:14;2.80;61.60
21502;DHT22;27639;48.674;9.242;2022-12-16T01:14:40;2.80;61.60
21502;DHT22;27639;48.674;9.242;2022-12-16T01:17:05;2.80;61.50
21502;DHT22;27639;48.674;9.242;2022-12-16T01:19:31;2.80;61.30
21502;DHT22;27639;48.674;9.242;2022-12-16T01:21:56;2.80;61.20
21502;DHT22;27639;48.674;9.242;2022-12-16T01:24:22;2.80;61.20
21502;DHT22;27639;48.674;9.242;2022-12-16T01:26:48;2.70;61.50
21502;DHT22;27639;48.674;9.242;2022-12-16T01:29:13;2.70;61.50
21502;DHT22;27639;48.674;9.242;2022-12-16T01:31:39;2.70;61.50
21502;DHT22;27639;48.674;9.242;2022-12-16T01:34:04;2.70;62.40
21502;DHT22;27639;48.674;9.242;2022-12-16T01:36:30;2.70;61.50
21502;DHT22;27639;48.674;9.242;2022-12-16T01:38:56;2.80;61.60
21502;DHT22;27639;48.674;9.242;2022-12-16T01:41:21;2.80;61.40
21502;DHT22;27639;48.674;9.242;2022-12-16T01:43:47;2.80;61.60
21502;DHT22;27639;48.674;9.242;2022-12-16T01:51:38;2.80;61.20
21502;DHT22;27639;48.674;9.242;2022-12-16T01:54:12;2.70;61.20
21502;DHT22;27639;48.674;9.242;2022-12-16T01:56:42;2.70;61.20
21502;DHT22;27639;48.674;9.242;2022-12-16T01:59:11;2.70;61.10
21502;DHT22;27639;48.674;9.242;2022-12-16T02:01:38;2.70;61.20
21502;DHT22;27639;48.674;9.242;2022-12-16T02:04:03;2.60;61.40
21502;DHT22;27639;48.674;9.242;2022-12-16T02:06:30;2.60;61.60
21502;DHT22;27639;48.674;9.242;2022-12-16T02:08:57;2.70;61.80
21502;DHT22;27639;48.674;9.242;2022-12-16T02:11:44;2.70;61.70
21502;DHT22;27639;48.674;9.242;2022-12-16T02:14:36;2.70;61.60
21502;DHT22;27639;48.674;9.242;2022-12-16T02:17:26;2.60;61.40
21502;DHT22;27639;48.674;9.242;2022-12-16T02:22:54;2.60;61.60
21502;DHT22;27639;48.674;9.242;2022-12-16T02:25:51;2.50;61.70
21502;DHT22;27639;48.674;9.242;2022-12-16T02:31:47;2.50;61.90
21502;DHT22;27639;48.674;9.242;2022-12-16T02:34:21;2.50;62.00
21502;DHT22;27639;48.674;9.242;2022-12-16T02:39:21;2.50;62.00
21502;DHT22;27639;48.674;9.242;2022-12-16T02:42:06;2.50;62.10
21502;DHT22;27639;48.674;9.242;2022-12-16T02:45:20;2.50;62.20
21502;DHT22;27639;48.674;9.242;2022-12-16T02:47:38;2.50;62.20
21502;DHT22;27639;48.674;9.242;2022-12-16T02:50:13;2.50;62.50
21502;DHT22;27639;48.674;9.242;2022-12-16T02:52:40;2.50;62.60
21502;DHT22;27639;48.674;9.242;2022-12-16T02:55:08;2.50;62.60
21502;DHT22;27639;48.674;9.242;2022-12-16T03:00:16;2.60;62.40
21502;DHT22;27639;48.674;9.242;2022-12-16T03:05:32;2.60;62.80
21502;DHT22;27639;48.674;9.242;2022-12-16T03:08:04;2.50;62.90
21502;DHT22;27639;48.674;9.242;2022-12-16T03:10:37;2.50;62.90
21502;DHT22;27639;48.674;9.242;2022-12-16T03:13:04;2.50;63.10
21502;DHT22;27639;48.674;9.242;2022-12-16T03:15:32;2.50;63.10
21502;DHT22;27639;48.674;9.242;2022-12-16T03:18:00;2.50;63.10
21502;DHT22;27639;48.674;9.242;2022-12-16T03:22:56;2.60;63.10
21502;DHT22;27639;48.674;9.242;2022-12-16T03:25:24;2.60;63.00
21502;DHT22;27639;48.674;9.242;2022-12-16T03:30:29;2.50;62.80
21502;DHT22;27639;48.674;9.242;2022-12-16T03:35:48;2.40;62.70
21502;DHT22;27639;48.674;9.242;2022-12-16T03:38:16;2.40;62.50
21502;DHT22;27639;48.674;9.242;2022-12-16T03:40:43;2.40;62.70
21502;DHT22;27639;48.674;9.242;2022-12-16T03:43:10;2.40;62.60
21502;DHT22;27639;48.674;9.242;2022-12-16T03:45:40;2.40;62.60
21502;DHT22;27639;48.674;9.242;2022-12-16T03:48:09;2.40;62.50
21502;DHT22;27639;48.674;9.242;2022-12-16T03:50:36;2.40;62.50
21502;DHT22;27639;48.674;9.242;2022-12-16T03:53:02;2.40;62.30
21502;DHT22;27639;48.674;9.242;2022-12-16T03:55:28;2.40;62.30
21502;DHT22;27639;48.674;9.242;2022-12-16T03:57:54;2.40;62.30
21502;DHT22;27639;48.674;9.242;2022-12-16T04:00:20;2.40;62.30
21502;DHT22;27639;48.674;9.242;2022-12-16T04:02:46;2.40;62.30
21502;DHT22;27639;48.674;9.242;2022-12-16T04:05:12;2.40;62.30
21502;DHT22;27639;48.674;9.242;2022-12-16T04:07:38;2.40;62.30
21502;DHT22;27639;48.674;9.242;2022-12-16T04:10:05;2.40;62.20
21502;DHT22;27639;48.674;9.242;2022-12-16T04:12:31;2.40;62.30
21502;DHT22;27639;48.674;9.242;2022-12-16T04:15:15;2.40;63.10
21502;DHT22;27639;48.674;9.242;2022-12-16T04:17:59;2.20;62.10
21502;DHT22;27639;48.674;9.242;2022-12-16T04:20:46;2.20;62.40
21502;DHT22;27639;48.674;9.242;2022-12-16T04:23:33;2.20;62.40
21502;DHT22;27639;48.674;9.242;2022-12-16T04:26:19;2.30;62.40
21502;DHT22;27639;48.674;9.242;2022-12-16T04:28:45;2.30;62.40
21502;DHT22;27639;48.674;9.242;2022-12-16T04:31:10;2.30;62.40
21502;DHT22;27639;48.674;9.242;2022-12-16T04:33:36;2.30;62.40
21502;DHT22;27639;48.674;9.242;2022-12-16T04:36:37;2.30;62.30
21502;DHT22;27639;48.674;9.242;2022-12-16T04:39:21;2.30;62.40
21502;DHT22;27639;48.674;9.242;2022-12-16T04:42:05;2.30;62.40
21502;DHT22;27639;48.674;9.242;2022-12-16T04:44:50;2.20;62.40
21502;DHT22;27639;48.674;9.242;2022-12-16T04:47:34;2.20;62.70
21502;DHT22;27639;48.674;9.242;2022-12-16T04:50:18;2.20;62.70
21502;DHT22;27639;48.674;9.242;2022-12-16T04:53:02;2.20;62.50
21502;DHT22;27639;48.674;9.242;2022-12-16T04:55:46;2.20;62.50
21502;DHT22;27639;48.674;9.242;2022-12-16T04:58:30;2.20;62.80
21502;DHT22;27639;48.674;9.242;2022-12-16T05:01:14;2.20;62.60
21502;DHT22;27639;48.674;9.242;2022-12-16T05:03:58;2.20;62.50
21502;DHT22;27639;48.674;9.242;2022-12-16T05:06:43;2.30;62.20
21502;DHT22;27639;48.674;9.242;2022-12-16T05:09:27;2.30;62.10
21502;DHT22;27639;48.674;9.242;2022-12-16T05:12:11;2.20;62.00
21502;DHT22;27639;48.674;9.242;2022-12-16T05:14:55;2.30;62.20
21502;DHT22;27639;48.674;9.242;2022-12-16T05:17:40;2.20;62.20
21502;DHT22;27639;48.674;9.242;2022-12-16T05:20:24;2.20;62.40
21502;DHT22;27639;48.674;9.242;2022-12-16T05:23:08;2.20;62.20
21502;DHT22;27639;48.674;9.242;2022-12-16T05:25:52;2.20;62.00
21502;DHT22;27639;48.674;9.242;2022-12-16T05:28:36;2.20;62.10
21502;DHT22;27639;48.674;9.242;2022-12-16T05:31:20;2.20;62.10
21502;DHT22;27639;48.674;9.242;2022-12-16T05:34:04;2.30;62.00
21502;DHT22;27639;48.674;9.242;2022-12-16T05:36:48;2.30;61.90
21502;DHT22;27639;48.674;9.242;2022-12-16T05:39:33;2.20;61.80
21502;DHT22;27639;48.674;9.242;2022-12-16T05:42:17;2.10;62.20
21502;DHT22;27639;48.674;9.242;2022-12-16T05:45:02;2.20;62.10
21502;DHT22;27639;48.674;9.242;2022-12-16T05:47:49;2.20;62.10
21502;DHT22;27639;48.674;9.242;2022-12-16T05:50:33;2.20;62.10
21502;DHT22;27639;48.674;9.242;2022-12-16T05:53:17;2.20;62.10
21502;DHT22;27639;48.674;9.242;2022-12-16T05:56:01;2.10;62.00
21502;DHT22;27639;48.674;9.242;2022-12-16T05:58:53;2.10;62.30
21502;DHT22;27639;48.674;9.242;2022-12-16T06:01:37;2.10;62.20
21502;DHT22;27639;48.674;9.242;2022-12-16T06:04:21;2.10;62.20
21502;DHT22;27639;48.674;9.242;2022-12-16T06:07:06;2.10;62.40
21502;DHT22;27639;48.674;9.242;2022-12-16T06:09:49;2.00;62.30
21502;DHT22;27639;48.674;9.242;2022-12-16T06:12:34;2.10;62.50
21502;DHT22;27639;48.674;9.242;2022-12-16T06:15:18;2.10;62.30
21502;DHT22;27639;48.674;9.242;2022-12-16T06:18:03;2.10;62.20
21502;DHT22;27639;48.674;9.242;2022-12-16T06:20:47;2.10;62.00
21502;DHT22;27639;48.674;9.242;2022-12-16T06:23:32;2.10;62.00
21502;DHT22;27639;48.674;9.242;2022-12-16T06:26:16;2.10;62.00
21502;DHT22;27639;48.674;9.242;2022-12-16T06:29:00;2.00;62.10
21502;DHT22;27639;48.674;9.242;2022-12-16T06:31:44;2.00;62.30
21502;DHT22;27639;48.674;9.242;2022-12-16T06:34:29;2.10;62.30
21502;DHT22;27639;48.674;9.242;2022-12-16T06:37:13;2.10;62.20
21502;DHT22;27639;48.674;9.242;2022-12-16T06:39:57;2.10;62.20
21502;DHT22;27639;48.674;9.242;2022-12-16T06:42:41;2.10;62.20
21502;DHT22;27639;48.674;9.242;2022-12-16T06:45:25;2.10;62.20
21502;DHT22;27639;48.674;9.242;2022-12-16T06:48:10;2.00;62.10
21502;DHT22;27639;48.674;9.242;2022-12-16T06:50:54;2.00;62.40
21502;DHT22;27639;48.674;9.242;2022-12-16T06:53:38;2.10;62.20
21502;DHT22;27639;48.674;9.242;2022-12-16T06:56:22;2.10;62.20
21502;DHT22;27639;48.674;9.242;2022-12-16T06:59:06;2.10;62.10
21502;DHT22;27639;48.674;9.242;2022-12-16T07:01:51;2.00;61.90
21502;DHT22;27639;48.674;9.242;2022-12-16T07:04:35;2.10;61.90
21502;DHT22;27639;48.674;9.242;2022-12-16T07:07:19;2.00;61.90
21502;DHT22;27639;48.674;9.242;2022-12-16T07:10:04;2.00;62.30
21502;DHT22;27639;48.674;9.242;2022-12-16T07:12:48;2.10;62.20
21502;DHT22;27639;48.674;9.242;2022-12-16T07:15:36;2.00;61.90
21502;DHT22;27639;48.674;9.242;2022-12-16T07:18:21;2.00;62.10
21502;DHT22;27639;48.674;9.242;2022-12-16T07:21:05;1.90;62.00
21502;DHT22;27639;48.674;9.242;2022-12-16T07:23:49;2.00;62.30
21502;DHT22;27639;48.674;9.242;2022-12-16T07:26:33;2.00;62.10
21502;DHT22;27639;48.674;9.242;2022-12-16T07:29:17;1.90;61.90
21502;DHT22;27639;48.674;9.242;2022-12-16T07:32:01;2.00;62.30
21502;DHT22;27639;48.674;9.242;2022-12-16T07:34:45;2.10;62.20
21502;DHT22;27639;48.674;9.242;2022-12-16T07:37:30;2.10;62.00
21502;DHT22;27639;48.674;9.242;2022-12-16T07:40:14;2.10;62.00
21502;DHT22;27639;48.674;9.242;2022-12-16T07:42:58;2.10;62.00
21502;DHT22;27639;48.674;9.242;2022-12-16T07:45:42;2.20;61.90
21502;DHT22;27639;48.674;9.242;2022-12-16T07:48:26;2.20;61.60
21502;DHT22;27639;48.674;9.242;2022-12-16T07:51:10;2.30;61.60
21502;DHT22;27639;48.674;9.242;2022-12-16T07:53:54;2.20;61.50
21502;DHT22;27639;48.674;9.242;2022-12-16T07:56:38;2.30;61.70
21502;DHT22;27639;48.674;9.242;2022-12-16T07:59:23;2.20;61.50
21502;DHT22;27639;48.674;9.242;2022-12-16T08:02:09;2.30;61.70
21502;DHT22;27639;48.674;9.242;2022-12-16T08:04:54;2.30;61.40
21502;DHT22;27639;48.674;9.242;2022-12-16T08:07:38;2.40;61.30
21502;DHT22;27639;48.674;9.242;2022-12-16T08:10:22;2.40;61.30
21502;DHT22;27639;48.674;9.242;2022-12-16T08:13:07;2.40;61.40
21502;DHT22;27639;48.674;9.242;2022-12-16T08:15:51;2.50;61.20
21502;DHT22;27639;48.674;9.242;2022-12-16T08:18:35;2.40;60.80
21502;DHT22;27639;48.674;9.242;2022-12-16T08:21:19;2.40;61.10
21502;DHT22;27639;48.674;9.242;2022-12-16T08:24:04;2.40;61.00
21502;DHT22;27639;48.674;9.242;2022-12-16T08:26:47;2.40;61.20
21502;DHT22;27639;48.674;9.242;2022-12-16T08:29:32;2.40;60.70
21502;DHT22;27639;48.674;9.242;2022-12-16T08:32:16;2.50;60.70
21502;DHT22;27639;48.674;9.242;2022-12-16T08:35:00;2.60;60.70
21502;DHT22;27639;48.674;9.242;2022-12-16T08:37:45;2.60;60.40
21502;DHT22;27639;48.674;9.242;2022-12-16T08:40:29;2.60;60.10
21502;DHT22;27639;48.674;9.242;2022-12-16T08:43:14;2.70;59.90
21502;DHT22;27639;48.674;9.242;2022-12-16T08:45:58;2.70;60.30
21502;DHT22;27639;48.674;9.242;2022-12-16T08:48:42;2.70;60.30
21502;DHT22;27639;48.674;9.242;2022-12-16T08:51:26;2.80;60.00
21502;DHT22;27639;48.674;9.242;2022-12-16T08:54:10;2.70;59.90
21502;DHT22;27639;48.674;9.242;2022-12-16T08:56:55;2.70;59.90
21502;DHT22;27639;48.674;9.242;2022-12-16T08:59:40;2.80;60.00
21502;DHT22;27639;48.674;9.242;2022-12-16T09:02:24;2.90;60.00
21502;DHT22;27639;48.674;9.242;2022-12-16T09:05:08;3.00;60.00
21502;DHT22;27639;48.674;9.242;2022-12-16T09:08:00;3.00;59.90
21502;DHT22;27639;48.674;9.242;2022-12-16T09:10:44;3.10;59.70
21502;DHT22;27639;48.674;9.242;2022-12-16T09:13:29;3.10;59.60
21502;DHT22;27639;48.674;9.242;2022-12-16T09:16:17;3.10;59.30
21502;DHT22;27639;48.674;9.242;2022-12-16T09:19:01;3.20;59.20
21502;DHT22;27639;48.674;9.242;2022-12-16T09:21:45;3.20;59.20
21502;DHT22;27639;48.674;9.242;2022-12-16T09:24:34;3.20;59.00
21502;DHT22;27639;48.674;9.242;2022-12-16T09:27:19;3.20;58.80
21502;DHT22;27639;48.674;9.242;2022-12-16T09:30:03;3.30;58.70
21502;DHT22;27639;48.674;9.242;2022-12-16T09:32:47;3.30;58.60
21502;DHT22;27639;48.674;9.242;2022-12-16T09:35:31;3.40;58.40
21502;DHT22;27639;48.674;9.242;2022-12-16T09:38:15;3.40;58.20
21502;DHT22;27639;48.674;9.242;2022-12-16T09:41:13;3.40;58.20
21502;DHT22;27639;48.674;9.242;2022-12-16T09:50:04;3.40;57.80
21502;DHT22;27639;48.674;9.242;2022-12-16T09:52:58;3.50;57.70
21502;DHT22;27639;48.674;9.242;2022-12-16T09:55:43;3.50;57.40
21502;DHT22;27639;48.674;9.242;2022-12-16T09:58:42;3.40;57.60
21502;DHT22;27639;48.674;9.242;2022-12-16T10:01:30;3.40;57.60
21502;DHT22;27639;48.674;9.242;2022-12-16T10:04:15;3.40;57.50
21502;DHT22;27639;48.674;9.242;2022-12-16T10:07:00;3.40;57.30
21502;DHT22;27639;48.674;9.242;2022-12-16T10:22:36;3.50;56.90
21502;DHT22;27639;48.674;9.242;2022-12-16T10:25:29;3.60;56.70
21502;DHT22;27639;48.674;9.242;2022-12-16T10:31:02;3.60;56.50
21502;DHT22;27639;48.674;9.242;2022-12-16T10:33:53;3.60;56.50
21502;DHT22;27639;48.674;9.242;2022-12-16T10:36:37;3.50;56.10
21502;DHT22;27639;48.674;9.242;2022-12-16T10:39:31;3.50;56.20
21502;DHT22;27639;48.674;9.242;2022-12-16T10:42:25;3.50;56.20
21502;DHT22;27639;48.674;9.242;2022-12-16T10:45:22;3.50;56.00
21502;DHT22;27639;48.674;9.242;2022-12-16T10:48:10;3.60;55.90
21502;DHT22;27639;48.674;9.242;2022-12-16T10:50:54;3.60;55.90
21502;DHT22;27639;48.674;9.242;2022-12-16T10:53:38;3.60;55.90
21502;DHT22;27639;48.674;9.242;2022-12-16T10:59:16;3.60;55.10
21502;DHT22;27639;48.674;9.242;2022-12-16T11:02:04;3.60;55.10
21502;DHT22;27639;48.674;9.242;2022-12-16T11:04:48;3.60;55.00
21502;DHT22;27639;48.674;9.242;2022-12-16T11:07:33;3.60;54.80
21502;DHT22;27639;48.674;9.242;2022-12-16T11:10:26;3.60;54.90
21502;DHT22;27639;48.674;9.242;2022-12-16T11:13:17;3.60;54.40
21502;DHT22;27639;48.674;9.242;2022-12-16T11:18:55;3.60;55.00
21502;DHT22;27639;48.674;9.242;2022-12-16T11:21:39;3.60;54.30
21502;DHT22;27639;48.674;9.242;2022-12-16T11:24:23;3.70;54.60
21502;DHT22;27639;48.674;9.242;2022-12-16T11:30:20;3.70;54.70
21502;DHT22;27639;48.674;9.242;2022-12-16T11:33:16;3.70;54.40
21502;DHT22;27639;48.674;9.242;2022-12-16T11:36:13;3.80;54.30
21502;DHT22;27639;48.674;9.242;2022-12-16T11:38:59;3.80;54.00
21502;DHT22;27639;48.674;9.242;2022-12-16T11:41:49;3.90;54.00
21502;DHT22;27639;48.674;9.242;2022-12-16T11:44:43;3.90;54.10
21502;DHT22;27639;48.674;9.242;2022-12-16T11:48:00;3.80;54.00
21502;DHT22;27639;48.674;9.242;2022-12-16T11:51:04;3.90;53.90
21502;DHT22;27639;48.674;9.242;2022-12-16T11:57:01;4.00;53.70
21502;DHT22;27639;48.674;9.242;2022-12-16T11:59:59;4.00;53.70
21502;DHT22;27639;48.674;9.242;2022-12-16T12:03:11;4.10;53.80
21502;DHT22;27639;48.674;9.242;2022-12-16T12:06:11;4.10;53.80
21502;DHT22;27639;48.674;9.242;2022-12-16T12:09:25;4.20;53.80
21502;DHT22;27639;48.674;9.242;2022-12-16T12:12:59;4.20;53.10
21502;DHT22;27639;48.674;9.242;2022-12-16T12:15:56;4.20;53.40
21502;DHT22;27639;48.674;9.242;2022-12-16T12:21:54;4.10;53.40
21502;DHT22;27639;48.674;9.242;2022-12-16T12:30:53;4.20;53.20
21502;DHT22;27639;48.674;9.242;2022-12-16T12:37:14;4.30;53.00
21502;DHT22;27639;48.674;9.242;2022-12-16T12:43:21;4.40;52.90
21502;DHT22;27639;48.674;9.242;2022-12-16T12:46:45;4.30;53.00
21502;DHT22;27639;48.674;9.242;2022-12-16T12:55:44;4.20;52.90
21502;DHT22;27639;48.674;9.242;2022-12-16T12:58:33;4.20;52.90
21502;DHT22;27639;48.674;9.242;2022-12-16T13:01:24;4.20;53.00
21502;DHT22;27639;48.674;9.242;2022-12-16T13:04:12;4.20;53.00
21502;DHT22;27639;48.674;9.242;2022-12-16T13:06:58;4.30;53.00
21502;DHT22;27639;48.674;9.242;2022-12-16T13:09:44;4.30;52.80
21502;DHT22;27639;48.674;9.242;2022-12-16T13:12:28;4.30;52.60
21502;DHT22;27639;48.674;9.242;2022-12-16T13:15:33;4.20;52.70
21502;DHT22;27639;48.674;9.242;2022-12-16T13:18:30;4.30;52.50
21502;DHT22;27639;48.674;9.242;2022-12-16T13:27:15;4.30;52.00
21502;DHT22;27639;48.674;9.242;2022-12-16T13:30:05;4.40;51.60
21502;DHT22;27639;48.674;9.242;2022-12-16T13:33:04;4.30;50.90
21502;DHT22;27639;48.674;9.242;2022-12-16T13:35:57;4.30;50.40
21502;DHT22;27639;48.674;9.242;2022-12-16T13:38:49;4.20;51.20
21502;DHT22;27639;48.674;9.242;2022-12-16T13:50:45;4.00;51.00
21502;DHT22;27639;48.674;9.242;2022-12-16T13:53:50;3.90;51.00
21502;DHT22;27639;48.674;9.242;2022-12-16T13:56:47;3.90;50.90
21502;DHT22;27639;48.674;9.242;2022-12-16T13:59:36;3.80;51.60
21502;DHT22;27639;48.674;9.242;2022-12-16T14:02:28;3.80;51.00
21502;DHT22;27639;48.674;9.242;2022-12-16T14:05:22;3.80;51.20
21502;DHT22;27639;48.674;9.242;2022-12-16T14:08:13;3.70;50.90
21502;DHT22;27639;48.674;9.242;2022-12-16T14:11:02;3.70;51.10
21502;DHT22;27639;48.674;9.242;2022-12-16T14:14:12;3.60;51.30
21502;DHT22;27639;48.674;9.242;2022-12-16T14:17:00;3.60;51.40
21502;DHT22;27639;48.674;9.242;2022-12-16T14:25:46;3.40;51.50
21502;DHT22;27639;48.674;9.242;2022-12-16T14:28:39;3.40;51.20
21502;DHT22;27639;48.674;9.242;2022-12-16T14:31:29;3.40;51.70
21502;DHT22;27639;48.674;9.242;2022-12-16T14:34:23;3.40;51.10
21502;DHT22;27639;48.674;9.242;2022-12-16T14:37:35;3.40;50.90
21502;DHT22;27639;48.674;9.242;2022-12-16T14:40:29;3.30;51.20
21502;DHT22;27639;48.674;9.242;2022-12-16T14:43:19;3.30;51.20
21502;DHT22;27639;48.674;9.242;2022-12-16T14:46:04;3.30;51.20
21502;DHT22;27639;48.674;9.242;2022-12-16T14:48:49;3.20;51.30
21502;DHT22;27639;48.674;9.242;2022-12-16T14:51:44;3.20;51.60
21502;DHT22;27639;48.674;9.242;2022-12-16T14:54:38;3.20;51.80
21502;DHT22;27639;48.674;9.242;2022-12-16T14:57:26;3.00;51.80
21502;DHT22;27639;48.674;9.242;2022-12-16T15:03:29;3.10;52.10
21502;DHT22;27639;48.674;9.242;2022-12-16T15:06:33;3.10;52.10
21502;DHT22;27639;48.674;9.242;2022-12-16T15:09:41;3.00;52.30
21502;DHT22;27639;48.674;9.242;2022-12-16T15:12:28;3.00;52.20
21502;DHT22;27639;48.674;9.242;2022-12-16T15:15:41;3.10;52.00
21502;DHT22;27639;48.674;9.242;2022-12-16T15:18:31;3.00;52.00
21502;DHT22;27639;48.674;9.242;2022-12-16T15:21:16;3.00;52.10
21502;DHT22;27639;48.674;9.242;2022-12-16T15:24:01;3.00;52.00
21502;DHT22;27639;48.674;9.242;2022-12-16T15:27:51;3.00;52.10
21502;DHT22;27639;48.674;9.242;2022-12-16T15:30:33;3.00;52.10
21502;DHT22;27639;48.674;9.242;2022-12-16T15:33:32;3.00;52.20
21502;DHT22;27639;48.674;9.242;2022-12-16T15:36:30;3.00;52.10
21502;DHT22;27639;48.674;9.242;2022-12-16T15:39:34;3.00;52.00
21502;DHT22;27639;48.674;9.242;2022-12-16T15:42:30;2.90;52.10
21502;DHT22;27639;48.674;9.242;2022-12-16T15:45:31;2.90;51.90
21502;DHT22;27639;48.674;9.242;2022-12-16T15:48:30;2.90;52.00
21502;DHT22;27639;48.674;9.242;2022-12-16T15:51:31;2.80;52.20
21502;DHT22;27639;48.674;9.242;2022-12-16T15:54:21;2.80;52.30
21502;DHT22;27639;48.674;9.242;2022-12-16T15:57:28;2.70;52.50
21502;DHT22;27639;48.674;9.242;2022-12-16T16:00:26;2.70;52.70
21502;DHT22;27639;48.674;9.242;2022-12-16T16:03:20;2.60;52.70
21502;DHT22;27639;48.674;9.242;2022-12-16T16:06:24;2.70;52.80
21502;DHT22;27639;48.674;9.242;2022-12-16T16:09:15;2.70;52.80
21502;DHT22;27639;48.674;9.242;2022-12-16T16:12:08;2.70;52.80
21502;DHT22;27639;48.674;9.242;2022-12-16T16:14:53;2.70;52.80
21502;DHT22;27639;48.674;9.242;2022-12-16T16:17:37;2.70;52.80
21502;DHT22;27639;48.674;9.242;2022-12-16T16:20:21;2.70;52.80
21502;DHT22;27639;48.674;9.242;2022-12-16T16:23:06;2.70;52.80
21502;DHT22;27639;48.674;9.242;2022-12-16T16:25:51;2.70;52.80
21502;DHT22;27639;48.674;9.242;2022-12-16T16:28:54;2.70;52.80
21502;DHT22;27639;48.674;9.242;2022-12-16T16:31:38;2.70;52.80
21502;DHT22;27639;48.674;9.242;2022-12-16T16:34:23;2.70;52.80
21502;DHT22;27639;48.674;9.242;2022-12-16T16:37:13;2.70;52.80
21502;DHT22;27639;48.674;9.242;2022-12-16T16:39:57;2.60;52.70
21502;DHT22;27639;48.674;9.242;2022-12-16T16:42:44;2.60;52.80
21502;DHT22;27639;48.674;9.242;2022-12-16T16:45:28;2.50;53.00
21502;DHT22;27639;48.674;9.242;2022-12-16T16:48:16;2.40;52.90
21502;DHT22;27639;48.674;9.242;2022-12-16T16:51:02;2.50;53.10
21502;DHT22;27639;48.674;9.242;2022-12-16T16:53:46;2.40;53.10
21502;DHT22;27639;48.674;9.242;2022-12-16T16:56:33;2.50;53.10
21502;DHT22;27639;48.674;9.242;2022-12-16T16:59:20;2.50;53.20
21502;DHT22;27639;48.674;9.242;2022-12-16T17:02:17;2.50;53.20
21502;DHT22;27639;48.674;9.242;2022-12-16T17:05:02;2.50;53.20
21502;DHT22;27639;48.674;9.242;2022-12-16T17:07:46;2.50;53.30
21502;DHT22;27639;48.674;9.242;2022-12-16T17:10:31;2.50;53.30
21502;DHT22;27639;48.674;9.242;2022-12-16T17:13:15;2.40;53.10
21502;DHT22;27639;48.674;9.242;2022-12-16T17:15:59;2.30;53.20
21502;DHT22;27639;48.674;9.242;2022-12-16T17:18:43;2.30;53.40
21502;DHT22;27639;48.674;9.242;2022-12-16T17:21:27;2.30;53.40
21502;DHT22;27639;48.674;9.242;2022-12-16T17:24:11;2.30;53.30
21502;DHT22;27639;48.674;9.242;2022-12-16T17:26:55;2.30;53.30
21502;DHT22;27639;48.674;9.242;2022-12-16T17:29:39;2.20;53.20
21502;DHT22;27639;48.674;9.242;2022-12-16T17:32:24;2.20;53.50
21502;DHT22;27639;48.674;9.242;2022-12-16T17:35:10;2.20;53.50
21502;DHT22;27639;48.674;9.242;2022-12-16T17:37:54;2.30;53.80
21502;DHT22;27639;48.674;9.242;2022-12-16T17:40:38;2.30;53.70
21502;DHT22;27639;48.674;9.242;2022-12-16T17:43:22;2.30;53.60
21502;DHT22;27639;48.674;9.242;2022-12-16T17:46:26;2.30;53.70
21502;DHT22;27639;48.674;9.242;2022-12-16T17:49:11;2.40;53.60
21502;DHT22;27639;48.674;9.242;2022-12-16T17:51:55;2.40;53.60
21502;DHT22;27639;48.674;9.242;2022-12-16T17:54:39;2.40;53.50
21502;DHT22;27639;48.674;9.242;2022-12-16T17:57:23;2.50;53.40
21502;DHT22;27639;48.674;9.242;2022-12-16T18:00:08;2.40;53.30
21502;DHT22;27639;48.674;9.242;2022-12-16T18:02:52;2.50;53.50
21502;DHT22;27639;48.674;9.242;2022-12-16T18:05:36;2.50;53.40
21502;DHT22;27639;48.674;9.242;2022-12-16T18:08:20;2.40;53.40
21502;DHT22;27639;48.674;9.242;2022-12-16T18:11:04;2.40;53.50
21502;DHT22;27639;48.674;9.242;2022-12-16T18:13:48;2.50;53.50
21502;DHT22;27639;48.674;9.242;2022-12-16T18:16:33;2.50;53.60
21502;DHT22;27639;48.674;9.242;2022-12-16T18:19:17;2.50;53.60
21502;DHT22;27639;48.674;9.242;2022-12-16T18:22:02;2.40;53.50
21502;DHT22;27639;48.674;9.242;2022-12-16T18:24:46;2.40;53.60
21502;DHT22;27639;48.674;9.242;2022-12-16T18:27:32;2.50;53.50
21502;DHT22;27639;48.674;9.242;2022-12-16T18:30:16;2.60;53.30
21502;DHT22;27639;48.674;9.242;2022-12-16T18:33:01;2.60;53.20
21502;DHT22;27639;48.674;9.242;2022-12-16T18:35:45;2.60;53.20
21502;DHT22;27639;48.674;9.242;2022-12-16T18:38:29;2.50;53.30
21502;DHT22;27639;48.674;9.242;2022-12-16T18:41:16;2.50;53.40
21502;DHT22;27639;48.674;9.242;2022-12-16T18:44:01;2.60;53.60
21502;DHT22;27639;48.674;9.242;2022-12-16T18:46:46;2.60;53.60
21502;DHT22;27639;48.674;9.242;2022-12-16T18:49:30;2.60;53.60
21502;DHT22;27639;48.674;9.242;2022-12-16T18:52:16;2.60;53.60
21502;DHT22;27639;48.674;9.242;2022-12-16T18:55:00;2.60;53.40
21502;DHT22;27639;48.674;9.242;2022-12-16T18:57:44;2.60;53.60
21502;DHT22;27639;48.674;9.242;2022-12-16T19:00:28;2.60;53.60
21502;DHT22;27639;48.674;9.242;2022-12-16T19:03:13;2.50;53.70
21502;DHT22;27639;48.674;9.242;2022-12-16T19:05:57;2.50;54.00
21502;DHT22;27639;48.674;9.242;2022-12-16T19:08:41;2.40;53.90
21502;DHT22;27639;48.674;9.242;2022-12-16T19:11:26;2.50;54.00
21502;DHT22;27639;48.674;9.242;2022-12-16T19:14:11;2.50;53.80
21502;DHT22;27639;48.674;9.242;2022-12-16T19:16:55;2.60;53.70